Gulkana, AK

2:49 PM AKDT on July 23, 2014 (GMT -0800)
Gulkana (PAGK) Elev 1578 ft | 62.16 °N, 145.46 °W | Change Station

Current weather conditions updated 56 minutes ago

Overcast
Overcast
52 °F
Feels Like 52 °F
N
8
Wind Variable Wind from South

Today is forecast to be Much Cooler than yesterday.

Today
High -- | Low -- °F
--% Chance of Precip.
Yesterday
High -- | Low -- °F
Precip. -- in
4:43 AM 10:51 PM
Waning Crescent, 8% visible
Pressure 29.87 in
Visibility 10.0 miles
Clouds Overcast 4400 ft
Dew Point 45 °F
Humidity 77%
Rainfall 0.00 in
Snow Depth Not available.
UV 2 out of 12
Pollen Not available.
Air Quality Not available.
Flu Activity Not available.
METAR PAGK 232153Z AUTO 18007KT 10SM OVC044 11/07 A2986 RMK AO2 RAE49 SLP114 P0000 T01110072 TSNO $

More Conditions Fewer Conditions

Pressure 29.87 in
Visibility 10.0 miles
Clouds Overcast 4400 ft
Dew Point 45 °F
Humidity 77%
Rainfall 0.00 in
Snow Depth Not available.
UV 2 out of 12
Pollen Not available.
Air Quality Not available.
Flu Activity Not available.
METAR PAGK 232153Z AUTO 18007KT 10SM OVC044 11/07 A2986 RMK AO2 RAE49 SLP114 P0000 T01110072 TSNO $

More Conditions Fewer Conditions

10-Day Weather Forecast

Almanac

Astronomy

Jul. 23, 2014 Rise Set
Actual Time 4:43 AM AKDT 10:51 PM AKDT
Civil Twilight 3:15 AM AKDT 12:16 AM AKDT
Nautical Twilight Sun does not rise Sun does not rise
Astronomical Twilight Sun does not rise Sun does not rise
Moon 2:20 AM AKDT 8:16 PM AKDT
Length of Visible Light 21h 01m
Length of Day
18h 08m
Tomorrow will be 5m 12s shorter.
Waning Crescent, 8% of the Moon is Illuminated
Today
Waning Crescent
Jul 26
New
Aug 3
First Quarter
Aug 10
Full
Aug 17
Last Quarter

Today's Extremes

State Highs State Lows

Community

WunderPhotos

Upload Photos

1,736,806 photos uploaded!

Nearby

Snow Depth

Station Depth Elevation
Upper Tsaina River 0 in 1750 ft
Granite Creek 0 in 1240 ft
Susitna Valley High 2 in 375 ft
Indian Pass 1 in 2300 ft
Turnagain Pass 0 in 1880 ft

Earthquake Activity

City Distance Mag. Time & Date
No recent earthquake activity has been reported nearby.
Minimum magnitude displayed is 2.5.

Coastal Water Temperatures

Place Temperature
No Stations Reporting

Nearby Weather Stations

Station Location Temp. Dew Point Humidity Wind Precip. Elev Updated Type
Copper Bluff Subdivision, Gakona, AK 56.1 °F 47 °F 71% SW  at  8.0 mph 0.00 in / hr 1625 ft 2:43 PM AKDT Normal
AKDOT Glenn Highway @ MP 176.6, Glennallen, AK 53 °F 45 °F 74% SE  at  6 mph 0.00 in / hr 2112 ft 1:55 PM AKDT MADIS
Klutina River, Copper Center, AK 58.0 °F 49 °F 72% ESE  at  12.0 mph 0.00 in / hr 1100 ft 2:49 PM AKDT Rapid Fire
RAWS KLAWASI AK, Gakona, AK 55 °F 40 °F 57% South  at  18 mph 0.00 in / hr 3100 ft 1:56 PM AKDT MADIS

Show More Stations Show Fewer Stations